createdAt,value
2019-02-11T00:00:54.391Z,5.60
2019-02-11T00:03:20.638Z,5.60
2019-02-11T00:12:57.559Z,5.50
2019-02-11T00:15:23.814Z,5.50
2019-02-11T00:22:37.894Z,5.60
2019-02-11T00:25:04.285Z,5.50
2019-02-11T00:27:30.614Z,5.50
2019-02-11T00:29:56.897Z,5.50
2019-02-11T00:32:23.189Z,5.50
2019-02-11T00:34:49.469Z,5.50
2019-02-11T00:37:15.792Z,5.60
2019-02-11T00:39:42.099Z,5.60
2019-02-11T00:42:08.403Z,5.60
2019-02-11T00:44:34.686Z,5.70
2019-02-11T00:47:13.101Z,5.70
2019-02-11T00:49:39.384Z,5.70
2019-02-11T00:52:05.659Z,5.70
2019-02-11T00:54:32.068Z,5.70
2019-02-11T00:56:58.426Z,5.70
2019-02-11T00:59:24.755Z,5.70
2019-02-11T01:01:51.025Z,5.70
2019-02-11T01:04:17.358Z,5.70
2019-02-11T01:06:43.734Z,5.70
2019-02-11T01:09:10.017Z,5.70
2019-02-11T01:11:39.533Z,5.70
2019-02-11T01:14:05.686Z,5.70
2019-02-11T01:16:38.044Z,5.70
2019-02-11T01:19:04.205Z,5.60
2019-02-11T01:21:30.334Z,5.60
2019-02-11T01:23:59.293Z,5.60
2019-02-11T01:26:25.433Z,5.60
2019-02-11T01:28:51.627Z,5.60
2019-02-11T01:31:20.665Z,5.60
2019-02-11T01:33:46.829Z,5.60
2019-02-11T01:36:12.978Z,5.60
2019-02-11T01:38:41.868Z,5.70
2019-02-11T01:41:10.705Z,5.70
2019-02-11T01:43:36.882Z,5.70
2019-02-11T01:46:09.034Z,5.70
2019-02-11T01:48:35.314Z,5.70
2019-02-11T01:51:04.371Z,5.70
2019-02-11T01:53:30.514Z,5.70
2019-02-11T01:55:56.641Z,5.60
2019-02-11T01:58:22.853Z,5.60
2019-02-11T02:00:48.991Z,5.60
2019-02-11T02:03:15.159Z,5.60
2019-02-11T02:05:41.437Z,5.60
2019-02-11T02:08:07.601Z,5.60
2019-02-11T02:10:33.755Z,5.60
2019-02-11T02:12:59.926Z,5.60
2019-02-11T02:15:26.156Z,5.60
2019-02-11T02:17:55.110Z,5.60
2019-02-11T02:20:24.246Z,5.60
2019-02-11T02:22:50.417Z,5.60
2019-02-11T02:31:03.634Z,5.50
2019-02-11T02:33:29.688Z,5.50
2019-02-11T02:35:55.740Z,5.50
2019-02-11T02:38:21.861Z,5.40
2019-02-11T02:40:47.884Z,5.40
2019-02-11T02:43:17.027Z,5.40
2019-02-11T02:45:43.048Z,5.40
2019-02-11T02:48:09.084Z,5.40
2019-02-11T02:50:37.918Z,5.50
2019-02-11T02:53:06.675Z,5.50
2019-02-11T02:55:32.732Z,5.50
2019-02-11T02:57:58.765Z,5.50
2019-02-11T03:00:24.797Z,5.50
2019-02-11T03:02:50.886Z,5.50
2019-02-11T03:05:17.027Z,5.60
2019-02-11T03:07:49.228Z,5.60
2019-02-11T03:10:15.268Z,5.60
2019-02-11T03:12:41.417Z,5.60
2019-02-11T03:15:08.348Z,5.50
2019-02-11T03:17:34.387Z,5.50
2019-02-11T03:20:00.480Z,5.50
2019-02-11T03:22:26.521Z,5.40
2019-02-11T03:24:52.578Z,5.30
2019-02-11T03:27:18.861Z,5.30
2019-02-11T03:29:47.720Z,5.20
2019-02-11T03:32:13.765Z,5.20
2019-02-11T03:34:39.818Z,5.20
2019-02-11T03:37:08.536Z,5.10
2019-02-11T03:39:34.633Z,5.10
2019-02-11T03:42:00.643Z,5.10
2019-02-11T03:44:26.695Z,5.00
2019-02-11T03:46:52.828Z,5.00
2019-02-11T03:49:21.588Z,5.00
2019-02-11T03:51:47.611Z,5.00
2019-02-11T03:54:13.679Z,4.90
2019-02-11T03:56:42.607Z,4.90
2019-02-11T03:59:11.263Z,4.90
2019-02-11T04:01:37.302Z,4.90
2019-02-11T04:04:18.557Z,4.90
2019-02-11T04:06:44.591Z,4.90
2019-02-11T04:09:10.680Z,4.80
2019-02-11T04:11:36.787Z,4.80
2019-02-11T04:14:02.813Z,4.80
2019-02-11T04:16:28.856Z,4.80
2019-02-11T04:18:57.823Z,4.70
2019-02-11T04:21:23.855Z,4.70
2019-02-11T04:23:49.873Z,4.70
2019-02-11T04:26:15.926Z,4.70
2019-02-11T04:28:51.208Z,4.70
2019-02-11T04:31:17.244Z,4.60
2019-02-11T04:33:43.359Z,4.70
2019-02-11T04:36:09.403Z,4.60
2019-02-11T04:38:44.669Z,4.60
2019-02-11T04:41:10.812Z,4.60
2019-02-11T04:43:36.853Z,4.60
2019-02-11T04:46:05.572Z,4.60
2019-02-11T04:48:31.685Z,4.50
2019-02-11T04:50:57.738Z,4.50
2019-02-11T04:53:23.801Z,4.50
2019-02-11T04:55:49.832Z,4.50
2019-02-11T04:58:15.965Z,4.50
2019-02-11T05:00:41.992Z,4.50
2019-02-11T05:03:10.930Z,4.40
2019-02-11T05:05:39.541Z,4.40
2019-02-11T05:08:24.173Z,4.40
2019-02-11T05:10:50.364Z,4.50
2019-02-11T05:13:34.764Z,4.50
2019-02-11T05:16:00.804Z,4.60
2019-02-11T05:18:33.089Z,4.60
2019-02-11T05:21:01.844Z,4.60
2019-02-11T05:23:27.874Z,4.70
2019-02-11T05:25:53.985Z,4.70
2019-02-11T05:28:22.729Z,4.80
2019-02-11T05:30:51.486Z,4.80
2019-02-11T05:33:35.678Z,4.80
2019-02-11T05:36:01.768Z,4.80
2019-02-11T05:38:27.768Z,4.90
2019-02-11T05:40:56.659Z,4.80
2019-02-11T05:43:22.676Z,4.80
2019-02-11T05:45:48.727Z,4.80
2019-02-11T05:48:14.779Z,4.70
2019-02-11T05:50:40.830Z,4.70
2019-02-11T05:53:09.699Z,4.70
2019-02-11T05:55:35.873Z,4.80
2019-02-11T05:58:01.910Z,4.80
2019-02-11T06:00:27.941Z,4.80
2019-02-11T06:02:56.991Z,4.90
2019-02-11T06:05:23.007Z,4.90
2019-02-11T06:07:49.084Z,4.90
2019-02-11T06:10:18.304Z,4.90
2019-02-11T06:12:44.344Z,4.90
2019-02-11T06:15:13.065Z,4.90
2019-02-11T06:17:41.960Z,5.00
2019-02-11T06:20:10.899Z,5.00
2019-02-11T06:22:36.960Z,5.00
2019-02-11T06:25:04.090Z,5.00
2019-02-11T06:27:30.145Z,5.00
2019-02-11T06:29:56.191Z,5.00
2019-02-11T06:32:22.307Z,5.00
2019-02-11T06:34:51.021Z,5.00
2019-02-11T06:37:19.728Z,5.10
2019-02-11T06:40:05.625Z,5.10
2019-02-11T06:42:31.760Z,5.10
2019-02-11T06:44:57.811Z,5.10
2019-02-11T06:47:42.151Z,5.10
2019-02-11T06:50:12.438Z,5.10
2019-02-11T06:52:38.567Z,5.10
2019-02-11T06:55:06.480Z,5.10
2019-02-11T06:57:35.087Z,5.10
2019-02-11T07:00:01.109Z,5.10
2019-02-11T07:02:27.249Z,5.10
2019-02-11T07:05:11.794Z,5.20
2019-02-11T07:07:37.832Z,5.20
2019-02-11T07:10:05.752Z,5.20
2019-02-11T07:12:50.331Z,5.20
2019-02-11T07:15:22.297Z,5.30
2019-02-11T07:18:02.931Z,5.30
2019-02-11T07:20:28.943Z,5.30
2019-02-11T07:22:55.099Z,5.30
2019-02-11T07:25:21.145Z,5.30
2019-02-11T07:27:47.244Z,5.30
2019-02-11T07:30:13.274Z,5.30
2019-02-11T07:32:54.549Z,5.30
2019-02-11T07:35:20.592Z,5.30
2019-02-11T07:37:58.877Z,5.30
2019-02-11T07:40:25.707Z,5.30
2019-02-11T07:43:05.815Z,5.30
2019-02-11T07:45:39.883Z,5.40
2019-02-11T07:48:08.656Z,5.40
2019-02-11T07:50:49.764Z,5.40
2019-02-11T07:53:15.829Z,5.40
2019-02-11T07:55:41.972Z,5.40
2019-02-11T07:58:26.724Z,5.40
2019-02-11T08:00:52.749Z,5.30
2019-02-11T08:03:18.808Z,5.40
2019-02-11T08:05:44.818Z,5.50
2019-02-11T08:08:17.113Z,5.50
2019-02-11T08:11:01.873Z,5.50
2019-02-11T08:13:28.112Z,5.50
2019-02-11T08:15:54.276Z,5.50
2019-02-11T08:18:20.500Z,5.60
2019-02-11T08:20:46.649Z,5.70
2019-02-11T08:23:13.808Z,5.80
2019-02-11T08:25:40.270Z,5.80
2019-02-11T08:28:06.492Z,5.80
2019-02-11T08:30:32.719Z,5.90
2019-02-11T08:32:58.881Z,5.80
2019-02-11T08:35:25.118Z,5.90
2019-02-11T08:37:51.326Z,5.90
2019-02-11T08:40:17.505Z,5.90
2019-02-11T08:42:43.659Z,5.90
2019-02-11T08:45:10.148Z,6.00
2019-02-11T08:47:36.426Z,6.10
2019-02-11T08:50:06.953Z,6.20
2019-02-11T08:52:33.271Z,6.20
2019-02-11T08:54:59.449Z,6.20
2019-02-11T08:57:25.607Z,6.20
2019-02-11T08:59:52.045Z,6.10
2019-02-11T09:02:18.320Z,6.00
2019-02-11T09:04:44.505Z,6.20
2019-02-11T09:07:10.699Z,6.30
2019-02-11T09:09:36.888Z,6.60
2019-02-11T09:12:03.068Z,6.60
2019-02-11T09:14:30.906Z,6.70
2019-02-11T09:16:57.339Z,6.70
2019-02-11T09:19:23.508Z,6.70
2019-02-11T09:21:49.976Z,6.70
2019-02-11T09:24:34.934Z,6.60
2019-02-11T09:27:01.223Z,6.40
2019-02-11T09:29:27.516Z,6.40
2019-02-11T09:31:53.744Z,6.40
2019-02-11T09:34:20.057Z,6.50
2019-02-11T09:36:47.180Z,6.60
2019-02-11T09:39:32.272Z,6.80
2019-02-11T09:41:58.412Z,6.90
2019-02-11T09:44:29.575Z,7.00
2019-02-11T09:46:52.764Z,7.00
2019-02-11T09:49:18.919Z,7.20
2019-02-11T09:51:45.546Z,7.20
2019-02-11T09:54:11.941Z,7.20
2019-02-11T09:56:38.681Z,7.10
2019-02-11T09:59:07.659Z,7.20
2019-02-11T10:01:52.352Z,7.40
2019-02-11T10:04:18.508Z,7.50
2019-02-11T10:06:44.721Z,7.40
2019-02-11T10:09:10.900Z,7.30
2019-02-11T10:11:37.096Z,7.30
2019-02-11T10:14:03.261Z,7.30
2019-02-11T10:16:29.563Z,7.30
2019-02-11T10:18:55.845Z,7.40
2019-02-11T10:21:24.940Z,7.50
2019-02-11T10:23:51.097Z,7.70
2019-02-11T10:26:19.862Z,7.80
2019-02-11T10:28:46.124Z,7.80
2019-02-11T10:31:12.361Z,7.70
2019-02-11T10:33:38.732Z,7.70
2019-02-11T10:36:07.638Z,7.60
2019-02-11T10:38:36.478Z,7.60
2019-02-11T10:41:02.671Z,7.50
2019-02-11T10:43:29.011Z,7.50
2019-02-11T10:45:55.204Z,7.50
2019-02-11T10:48:21.667Z,7.60
2019-02-11T10:50:47.917Z,7.60
2019-02-11T10:53:14.104Z,7.70
2019-02-11T10:55:40.340Z,7.90
2019-02-11T10:58:06.700Z,7.90
2019-02-11T11:00:37.115Z,8.00
2019-02-11T11:03:06.029Z,8.00
2019-02-11T11:05:32.208Z,8.10
2019-02-11T11:07:58.400Z,8.30
2019-02-11T11:10:33.662Z,8.40
2019-02-11T11:13:02.524Z,8.40
2019-02-11T11:15:29.118Z,8.40
2019-02-11T11:17:55.637Z,8.50
2019-02-11T11:20:21.969Z,8.50
2019-02-11T11:22:48.130Z,8.60
2019-02-11T11:25:16.195Z,8.60
2019-02-11T11:27:42.788Z,8.50
2019-02-11T11:30:14.524Z,8.40
2019-02-11T11:32:41.880Z,8.50
2019-02-11T11:35:08.532Z,8.60
2019-02-11T11:37:53.339Z,8.60
2019-02-11T11:40:20.295Z,8.40
2019-02-11T11:43:05.221Z,8.30
2019-02-11T11:45:31.795Z,8.20
2019-02-11T11:48:00.744Z,8.10
2019-02-11T11:50:26.916Z,8.10
2019-02-11T11:52:53.146Z,8.00
2019-02-11T11:55:20.752Z,7.90
2019-02-11T11:57:49.975Z,7.90
2019-02-11T12:00:27.611Z,8.00
2019-02-11T12:03:01.442Z,8.10
2019-02-11T12:05:33.914Z,8.10
2019-02-11T12:08:00.233Z,8.10
2019-02-11T12:10:26.520Z,8.20
2019-02-11T12:12:55.638Z,8.30
2019-02-11T12:15:40.609Z,8.40
2019-02-11T12:18:06.857Z,8.80
2019-02-11T12:20:34.054Z,8.90
2019-02-11T12:23:03.677Z,8.70
2019-02-11T12:25:29.897Z,8.20
2019-02-11T12:28:11.719Z,7.90
2019-02-11T12:30:38.006Z,7.70
2019-02-11T12:33:04.182Z,7.40
2019-02-11T12:35:30.668Z,7.20
2019-02-11T12:37:57.086Z,7.00
2019-02-11T12:40:41.955Z,6.90
2019-02-11T12:43:08.427Z,6.90
2019-02-11T12:45:34.722Z,7.10
2019-02-11T12:48:03.782Z,7.20
2019-02-11T12:50:30.049Z,7.30
2019-02-11T12:52:59.036Z,7.50
2019-02-11T12:55:28.061Z,7.60
2019-02-11T12:57:54.219Z,7.60
2019-02-11T13:00:21.669Z,7.80
2019-02-11T13:02:47.864Z,7.80
2019-02-11T13:05:14.169Z,7.70
2019-02-11T13:07:43.089Z,7.80
2019-02-11T13:10:13.745Z,7.80
2019-02-11T13:12:46.509Z,7.70
2019-02-11T13:15:41.981Z,7.90
2019-02-11T13:17:43.843Z,8.10
2019-02-11T13:20:12.352Z,8.30
2019-02-11T13:22:41.613Z,8.60
2019-02-11T13:25:14.573Z,8.70
2019-02-11T13:27:43.668Z,8.90
2019-02-11T13:30:23.571Z,9.00
2019-02-11T13:32:49.759Z,8.60
2019-02-11T13:35:18.779Z,8.10
2019-02-11T13:37:45.146Z,7.80
2019-02-11T13:40:14.262Z,7.60
2019-02-11T13:42:40.547Z,7.40
2019-02-11T13:45:10.527Z,7.40
2019-02-11T13:47:52.263Z,7.70
2019-02-11T13:50:06.473Z,7.90
2019-02-11T13:52:51.516Z,8.20
2019-02-11T13:55:17.764Z,8.70
2019-02-11T13:58:02.762Z,9.60
2019-02-11T14:00:31.286Z,10.70
2019-02-11T14:03:12.874Z,11.20
2019-02-11T14:05:39.257Z,11.70
2019-02-11T14:08:05.534Z,12.10
2019-02-11T14:10:34.502Z,12.20
2019-02-11T14:13:01.052Z,12.30
2019-02-11T14:15:30.273Z,12.50
2019-02-11T14:18:13.458Z,12.90
2019-02-11T14:20:35.423Z,12.80
2019-02-11T14:23:02.514Z,12.20
2019-02-11T14:25:44.385Z,11.30
2019-02-11T14:28:06.190Z,10.60
2019-02-11T14:30:32.382Z,10.10
2019-02-11T14:32:58.709Z,9.80
2019-02-11T14:35:24.916Z,9.60
2019-02-11T14:37:51.197Z,9.40
2019-02-11T14:40:17.452Z,9.10
2019-02-11T14:42:43.840Z,8.90
2019-02-11T14:45:16.687Z,8.70
2019-02-11T14:47:58.373Z,8.70
2019-02-11T14:50:27.064Z,8.70
2019-02-11T14:52:53.320Z,8.70
2019-02-11T14:55:19.464Z,8.60
2019-02-11T14:57:45.634Z,8.60
2019-02-11T15:00:15.988Z,8.60
2019-02-11T15:02:42.241Z,8.60
2019-02-11T15:05:08.631Z,8.50
2019-02-11T15:07:37.416Z,8.50
2019-02-11T15:10:07.076Z,8.40
2019-02-11T15:12:39.322Z,8.30
2019-02-11T15:15:07.839Z,8.30
2019-02-11T15:17:53.105Z,8.20
2019-02-11T15:20:37.485Z,8.10
2019-02-11T15:23:03.657Z,8.00
2019-02-11T15:25:29.876Z,7.90
2019-02-11T15:27:56.032Z,7.80
2019-02-11T15:30:22.240Z,7.90
2019-02-11T15:32:48.536Z,7.80
2019-02-11T15:35:17.279Z,7.80
2019-02-11T15:37:43.513Z,7.80
2019-02-11T15:40:12.755Z,7.90
2019-02-11T15:42:38.931Z,8.00
2019-02-11T15:45:08.628Z,8.20
2019-02-11T15:47:53.289Z,8.20
2019-02-11T15:50:19.533Z,8.20
2019-02-11T15:52:45.690Z,8.20
2019-02-11T15:55:30.164Z,8.00
2019-02-11T15:57:56.369Z,7.70
2019-02-11T16:00:22.723Z,7.50
2019-02-11T16:02:51.432Z,7.40
2019-02-11T16:05:35.879Z,7.30
2019-02-11T16:08:04.688Z,7.30
2019-02-11T16:10:30.881Z,7.20
2019-02-11T16:12:57.116Z,7.20
2019-02-11T16:15:23.280Z,7.20
2019-02-11T16:17:49.467Z,7.10
2019-02-11T16:20:15.714Z,7.10
2019-02-11T16:22:42.323Z,7.10
2019-02-11T16:25:26.888Z,7.10
2019-02-11T16:27:53.112Z,7.00
2019-02-11T16:30:19.267Z,7.00
2019-02-11T16:32:45.635Z,7.10
2019-02-11T16:35:13.612Z,7.10
2019-02-11T16:37:39.755Z,7.00
2019-02-11T16:40:09.031Z,7.10
2019-02-11T16:42:35.212Z,7.10
2019-02-11T16:45:01.493Z,7.00
2019-02-11T16:47:27.652Z,7.00
2019-02-11T16:49:53.941Z,7.00
2019-02-11T16:52:20.100Z,7.00
2019-02-11T16:54:46.382Z,7.00
2019-02-11T16:57:12.541Z,6.90
2019-02-11T16:59:38.716Z,6.90
2019-02-11T17:02:04.987Z,6.90
2019-02-11T17:04:31.520Z,6.90
2019-02-11T17:07:16.642Z,6.90
2019-02-11T17:09:45.454Z,6.80
2019-02-11T17:12:11.759Z,6.80
2019-02-11T17:14:53.061Z,6.80
2019-02-11T17:17:19.220Z,6.70
2019-02-11T17:19:45.396Z,6.70
2019-02-11T17:22:11.728Z,6.70
2019-02-11T17:24:37.899Z,6.70
2019-02-11T17:27:22.937Z,6.70
2019-02-11T17:29:49.105Z,6.60
2019-02-11T17:32:15.253Z,6.50
2019-02-11T17:34:41.425Z,6.50
2019-02-11T17:37:07.581Z,6.50
2019-02-11T17:39:33.734Z,6.50
2019-02-11T17:44:20.800Z,6.50
2019-02-11T17:46:46.986Z,6.40
2019-02-11T17:49:17.811Z,6.30
2019-02-11T17:51:41.290Z,6.20
2019-02-11T17:54:07.444Z,6.20
2019-02-11T17:56:33.623Z,6.20
2019-02-11T17:58:59.803Z,6.20
2019-02-11T18:01:26.088Z,6.20
2019-02-11T18:03:52.283Z,6.30
2019-02-11T18:06:18.475Z,6.30
2019-02-11T18:08:44.684Z,6.30
2019-02-11T18:11:23.094Z,6.30
2019-02-11T18:13:49.248Z,6.30
2019-02-11T18:16:15.414Z,6.20
2019-02-11T18:18:41.568Z,6.20
2019-02-11T18:21:07.793Z,6.10
2019-02-11T18:23:49.236Z,6.10
2019-02-11T18:26:15.436Z,6.00
2019-02-11T18:28:41.584Z,6.00
2019-02-11T18:31:07.840Z,6.00
2019-02-11T18:33:34.037Z,6.10
2019-02-11T18:36:00.193Z,6.10
2019-02-11T18:38:26.394Z,6.20
2019-02-11T18:40:52.631Z,6.20
2019-02-11T18:43:18.804Z,6.20
2019-02-11T18:45:45.017Z,6.20
2019-02-11T18:48:11.184Z,6.20
2019-02-11T18:50:39.951Z,6.20
2019-02-11T18:53:06.192Z,6.20
2019-02-11T18:55:35.418Z,6.10
2019-02-11T18:58:04.132Z,6.10
2019-02-11T19:00:32.956Z,6.10
2019-02-11T19:02:59.120Z,6.00
2019-02-11T19:05:25.275Z,6.00
2019-02-11T19:07:51.542Z,5.90
2019-02-11T19:10:18.693Z,5.90
2019-02-11T19:12:45.324Z,5.90
2019-02-11T19:15:23.697Z,5.90
2019-02-11T19:17:52.660Z,5.90
2019-02-11T19:20:18.811Z,5.90
2019-02-11T19:22:45.009Z,6.00
2019-02-11T19:25:11.483Z,6.00
2019-02-11T19:27:56.444Z,6.00
2019-02-11T19:30:25.927Z,6.00
2019-02-11T19:33:07.337Z,6.00
2019-02-11T19:35:33.603Z,6.00
2019-02-11T19:37:59.782Z,5.90
2019-02-11T19:40:25.948Z,5.90
2019-02-11T19:42:54.728Z,5.90
2019-02-11T19:45:23.922Z,6.00
2019-02-11T19:47:50.204Z,5.90
2019-02-11T19:50:19.027Z,5.90
2019-02-11T19:52:45.749Z,5.90
2019-02-11T19:55:15.221Z,5.90
2019-02-11T19:57:56.811Z,5.90
2019-02-11T20:00:22.991Z,5.90
2019-02-11T20:02:52.026Z,5.80
2019-02-11T20:05:18.219Z,5.80
2019-02-11T20:07:47.284Z,5.80
2019-02-11T20:10:18.311Z,5.80
2019-02-11T20:12:44.525Z,5.90
2019-02-11T20:15:16.008Z,5.90
2019-02-11T20:18:01.067Z,5.90
2019-02-11T20:20:29.817Z,5.80
2019-02-11T20:22:56.321Z,5.90
2019-02-11T20:25:22.467Z,5.80
2019-02-11T20:27:48.879Z,5.80
2019-02-11T20:30:30.870Z,5.80
2019-02-11T20:32:57.033Z,5.80
2019-02-11T20:35:23.227Z,5.80
2019-02-11T20:37:49.393Z,5.80
2019-02-11T20:40:17.963Z,5.70
2019-02-11T20:42:46.961Z,5.70
2019-02-11T20:45:18.332Z,5.60
2019-02-11T20:48:03.262Z,5.50
2019-02-11T20:50:29.508Z,5.50
2019-02-11T20:52:55.908Z,5.40
2019-02-11T20:55:22.081Z,5.30
2019-02-11T20:57:51.174Z,5.30
2019-02-11T21:00:20.308Z,5.30
2019-02-11T21:02:56.058Z,5.30
2019-02-11T21:05:22.768Z,5.30
2019-02-11T21:07:49.012Z,5.30
2019-02-11T21:10:17.348Z,5.30
2019-02-11T21:12:43.625Z,5.20
2019-02-11T21:15:11.943Z,5.20
2019-02-11T21:17:38.175Z,5.10
2019-02-11T21:20:08.231Z,5.00
2019-02-11T21:22:34.407Z,5.00
2019-02-11T21:25:00.668Z,5.00
2019-02-11T21:27:26.810Z,5.00
2019-02-11T21:29:53.028Z,5.00
2019-02-11T21:32:19.215Z,5.10
2019-02-11T21:34:45.535Z,5.10
2019-02-11T21:37:11.809Z,5.20
2019-02-11T21:39:38.064Z,5.20
2019-02-11T21:42:04.404Z,5.30
2019-02-11T21:44:30.593Z,5.30
2019-02-11T21:46:56.808Z,5.20
2019-02-11T21:49:23.035Z,5.30
2019-02-11T21:51:49.245Z,5.30
2019-02-11T21:54:15.559Z,5.30
2019-02-11T21:56:41.828Z,5.20
2019-02-11T21:59:08.109Z,5.20
2019-02-11T22:01:34.407Z,5.20
2019-02-11T22:04:00.650Z,5.20
2019-02-11T22:06:26.882Z,5.20
2019-02-11T22:08:53.053Z,5.20
2019-02-11T22:11:26.691Z,5.10
2019-02-11T22:13:52.988Z,5.10
2019-02-11T22:16:19.226Z,5.20
2019-02-11T22:18:45.444Z,5.10
2019-02-11T22:21:11.692Z,5.20
2019-02-11T22:23:37.951Z,5.10
2019-02-11T22:26:04.116Z,5.20
2019-02-11T22:28:30.347Z,5.20
2019-02-11T22:30:56.553Z,5.20
2019-02-11T22:33:22.704Z,5.20
2019-02-11T22:35:55.096Z,5.10
2019-02-11T22:38:21.309Z,5.10
2019-02-11T22:40:47.584Z,5.10
2019-02-11T22:43:13.768Z,5.10
2019-02-11T22:45:49.159Z,5.10
2019-02-11T22:48:27.723Z,5.00
2019-02-11T22:51:11.980Z,5.00
2019-02-11T22:53:40.729Z,5.00
2019-02-11T22:56:06.944Z,5.00
2019-02-11T22:58:33.188Z,5.00
2019-02-11T23:01:03.243Z,4.90
2019-02-11T23:03:29.397Z,4.90
2019-02-11T23:05:55.561Z,4.90
2019-02-11T23:08:21.731Z,4.90
2019-02-11T23:10:47.921Z,4.80
2019-02-11T23:13:14.197Z,4.80
2019-02-11T23:15:40.417Z,4.80
2019-02-11T23:18:06.560Z,4.80
2019-02-11T23:20:32.827Z,4.70
2019-02-11T23:22:58.971Z,4.70
2019-02-11T23:25:25.142Z,4.60
2019-02-11T23:27:51.307Z,4.50
2019-02-11T23:30:17.511Z,4.50
2019-02-11T23:32:43.676Z,4.50
2019-02-11T23:35:09.938Z,4.60
2019-02-11T23:37:36.105Z,4.50
2019-02-11T23:40:11.358Z,4.60
2019-02-11T23:42:40.104Z,4.50
2019-02-11T23:45:08.165Z,4.50
2019-02-11T23:47:34.322Z,4.40
2019-02-11T23:50:00.476Z,4.50
2019-02-11T23:52:26.632Z,4.50
2019-02-11T23:54:55.390Z,4.50
2019-02-11T23:57:21.561Z,4.50
2019-02-11T23:59:47.717Z,4.40
